createdAt,value
2023-03-22T00:00:06.061Z,10.51
2023-03-22T00:01:06.079Z,10.49
2023-03-22T00:02:06.069Z,10.44
2023-03-22T00:03:06.247Z,10.40
2023-03-22T00:04:06.106Z,10.37
2023-03-22T00:05:06.018Z,10.34
2023-03-22T00:06:05.998Z,10.33
2023-03-22T00:07:05.997Z,10.31
2023-03-22T00:08:05.987Z,10.26
2023-03-22T00:09:05.993Z,10.25
2023-03-22T00:10:05.985Z,10.23
2023-03-22T00:11:05.938Z,10.17
2023-03-22T00:12:05.950Z,10.17
2023-03-22T00:13:05.926Z,10.20
2023-03-22T00:14:05.989Z,10.22
2023-03-22T00:15:05.918Z,10.22
2023-03-22T00:16:05.973Z,10.22
2023-03-22T00:17:05.890Z,10.23
2023-03-22T00:18:05.894Z,10.20
2023-03-22T00:19:05.876Z,10.19
2023-03-22T00:20:05.935Z,10.19
2023-03-22T00:21:05.862Z,10.20
2023-03-22T00:22:05.847Z,10.19
2023-03-22T00:23:05.854Z,10.17
2023-03-22T00:24:05.844Z,10.17
2023-03-22T00:25:05.823Z,10.16
2023-03-22T00:26:05.794Z,10.19
2023-03-22T00:27:05.784Z,10.19
2023-03-22T00:28:05.805Z,10.17
2023-03-22T00:29:05.775Z,10.17
2023-03-22T00:30:05.768Z,10.17
2023-03-22T00:31:05.821Z,10.19
2023-03-22T00:32:05.726Z,10.22
2023-03-22T00:33:05.759Z,10.22
2023-03-22T00:34:05.721Z,10.25
2023-03-22T00:35:05.716Z,10.25
2023-03-22T00:36:05.683Z,10.26
2023-03-22T00:37:05.709Z,10.26
2023-03-22T00:38:05.699Z,10.25
2023-03-22T00:39:05.673Z,10.26
2023-03-22T00:40:05.640Z,10.28
2023-03-22T00:41:05.636Z,10.26
2023-03-22T00:42:05.686Z,10.26
2023-03-22T00:43:05.619Z,10.23
2023-03-22T00:44:05.622Z,10.23
2023-03-22T00:45:05.626Z,10.19
2023-03-22T00:46:05.715Z,10.16
2023-03-22T00:47:05.598Z,10.20
2023-03-22T00:48:05.612Z,10.17
2023-03-22T00:49:05.539Z,10.17
2023-03-22T00:50:05.568Z,10.16
2023-03-22T00:51:05.551Z,10.16
2023-03-22T00:52:05.522Z,10.15
2023-03-22T00:53:05.496Z,10.13
2023-03-22T00:54:05.501Z,10.15
2023-03-22T00:55:05.495Z,10.16
2023-03-22T00:56:05.524Z,10.16
2023-03-22T00:57:05.500Z,10.16
2023-03-22T00:58:05.458Z,10.16
2023-03-22T00:59:05.451Z,10.15
2023-03-22T01:00:05.449Z,10.13
2023-03-22T01:01:05.473Z,10.15
2023-03-22T01:02:05.448Z,10.13
2023-03-22T01:03:05.407Z,10.13
2023-03-22T01:04:05.426Z,10.12
2023-03-22T01:05:05.386Z,10.12
2023-03-22T01:06:05.381Z,10.09
2023-03-22T01:07:05.369Z,10.10
2023-03-22T01:08:05.393Z,10.05
2023-03-22T01:09:05.410Z,10.05
2023-03-22T01:10:05.377Z,10.04
2023-03-22T01:11:05.350Z,10.05
2023-03-22T01:12:05.315Z,10.07
2023-03-22T01:13:05.316Z,10.10
2023-03-22T01:14:05.304Z,10.19
2023-03-22T01:15:05.310Z,10.23
2023-03-22T01:16:05.294Z,10.28
2023-03-22T01:17:05.248Z,10.30
2023-03-22T01:18:05.261Z,10.31
2023-03-22T01:19:05.235Z,10.34
2023-03-22T01:20:05.239Z,10.37
2023-03-22T01:21:05.234Z,10.38
2023-03-22T01:22:05.256Z,10.44
2023-03-22T01:23:05.204Z,10.44
2023-03-22T01:24:05.999Z,10.46
2023-03-22T01:25:05.314Z,10.48
2023-03-22T01:26:05.158Z,10.51
2023-03-22T01:27:05.162Z,10.49
2023-03-22T01:28:05.191Z,10.48
2023-03-22T01:29:05.149Z,10.51
2023-03-22T01:30:05.170Z,10.51
2023-03-22T01:31:05.269Z,10.53
2023-03-22T01:32:05.132Z,10.56
2023-03-22T01:33:05.235Z,10.57
2023-03-22T01:34:05.129Z,10.61
2023-03-22T01:35:05.118Z,10.61
2023-03-22T01:36:05.130Z,10.64
2023-03-22T01:37:05.123Z,10.67
2023-03-22T01:38:05.079Z,10.64
2023-03-22T01:39:05.104Z,10.67
2023-03-22T01:40:05.066Z,10.63
2023-03-22T01:41:05.085Z,10.61
2023-03-22T01:42:05.115Z,10.61
2023-03-22T01:43:05.073Z,10.61
2023-03-22T01:44:05.211Z,10.64
2023-03-22T01:45:04.972Z,10.64
2023-03-22T01:46:05.065Z,10.63
2023-03-22T01:47:04.999Z,10.63
2023-03-22T01:48:05.079Z,10.67
2023-03-22T01:49:05.204Z,10.67
2023-03-22T01:50:04.962Z,10.69
2023-03-22T01:51:05.075Z,10.71
2023-03-22T01:52:05.057Z,10.71
2023-03-22T01:53:04.903Z,10.69
2023-03-22T01:54:04.883Z,10.69
2023-03-22T01:55:04.863Z,10.71
2023-03-22T01:56:04.905Z,10.69
2023-03-22T01:57:04.864Z,10.68
2023-03-22T01:58:04.900Z,10.68
2023-03-22T01:59:04.812Z,10.67
2023-03-22T02:00:04.868Z,10.63
2023-03-22T02:01:04.886Z,10.63
2023-03-22T02:02:04.817Z,10.63
2023-03-22T02:03:04.890Z,10.61
2023-03-22T02:04:04.845Z,10.61
2023-03-22T02:05:04.784Z,10.59
2023-03-22T02:06:05.101Z,10.57
2023-03-22T02:07:04.772Z,10.56
2023-03-22T02:08:04.790Z,10.53
2023-03-22T02:09:04.707Z,10.49
2023-03-22T02:10:04.776Z,10.48
2023-03-22T02:11:04.730Z,10.46
2023-03-22T02:12:04.794Z,10.42
2023-03-22T02:13:04.682Z,10.38
2023-03-22T02:14:04.696Z,10.38
2023-03-22T02:15:04.688Z,10.35
2023-03-22T02:16:04.742Z,10.33
2023-03-22T02:17:04.721Z,10.33
2023-03-22T02:18:04.696Z,10.33
2023-03-22T02:19:04.670Z,10.31
2023-03-22T02:20:04.640Z,10.33
2023-03-22T02:21:04.637Z,10.34
2023-03-22T02:22:04.630Z,10.35
2023-03-22T02:23:04.644Z,10.38
2023-03-22T02:24:04.625Z,10.40
2023-03-22T02:25:04.645Z,10.40
2023-03-22T02:26:04.589Z,10.38
2023-03-22T02:27:04.637Z,10.37
2023-03-22T02:28:04.583Z,10.37
2023-03-22T02:29:04.545Z,10.37
2023-03-22T02:30:04.535Z,10.34
2023-03-22T02:31:04.605Z,10.31
2023-03-22T02:32:04.547Z,10.30
2023-03-22T02:33:04.517Z,10.26
2023-03-22T02:34:04.498Z,10.26
2023-03-22T02:35:04.470Z,10.22
2023-03-22T02:36:04.490Z,10.20
2023-03-22T02:37:04.511Z,10.17
2023-03-22T02:38:04.465Z,10.13
2023-03-22T02:39:04.430Z,10.13
2023-03-22T02:40:04.415Z,10.13
2023-03-22T02:41:04.486Z,10.13
2023-03-22T02:42:04.388Z,10.10
2023-03-22T02:43:04.396Z,10.12
2023-03-22T02:44:04.403Z,10.10
2023-03-22T02:45:04.446Z,10.10
2023-03-22T02:46:04.432Z,10.10
2023-03-22T02:47:04.364Z,10.12
2023-03-22T02:48:04.482Z,10.12
2023-03-22T02:49:04.412Z,10.15
2023-03-22T02:50:04.341Z,10.13
2023-03-22T02:51:04.385Z,10.07
2023-03-22T02:52:04.338Z,10.07
2023-03-22T02:53:04.269Z,10.07
2023-03-22T02:54:04.360Z,10.07
2023-03-22T02:55:04.278Z,10.10
2023-03-22T02:56:04.417Z,10.12
2023-03-22T02:57:04.327Z,10.10
2023-03-22T02:58:04.317Z,10.13
2023-03-22T02:59:04.302Z,10.13
2023-03-22T03:00:04.245Z,10.12
2023-03-22T03:01:04.334Z,10.12
2023-03-22T03:02:04.346Z,10.10
2023-03-22T03:03:04.220Z,10.12
2023-03-22T03:04:04.220Z,10.13
2023-03-22T03:05:04.193Z,10.15
2023-03-22T03:06:04.162Z,10.13
2023-03-22T03:07:04.286Z,10.15
2023-03-22T03:08:04.124Z,10.15
2023-03-22T03:09:04.207Z,10.15
2023-03-22T03:10:04.915Z,10.20
2023-03-22T03:11:04.080Z,10.23
2023-03-22T03:12:04.083Z,10.25
2023-03-22T03:13:04.083Z,10.26
2023-03-22T03:14:04.111Z,10.28
2023-03-22T03:15:04.091Z,10.31
2023-03-22T03:16:04.123Z,10.28
2023-03-22T03:17:04.058Z,10.31
2023-03-22T03:18:03.995Z,10.30
2023-03-22T03:19:04.149Z,10.30
2023-03-22T03:20:04.010Z,10.30
2023-03-22T03:21:04.020Z,10.30
2023-03-22T03:22:04.060Z,10.30
2023-03-22T03:23:04.050Z,10.28
2023-03-22T03:24:04.019Z,10.28
2023-03-22T03:25:04.000Z,10.33
2023-03-22T03:26:04.040Z,10.33
2023-03-22T03:27:04.055Z,10.33
2023-03-22T03:28:03.959Z,10.33
2023-03-22T03:29:03.900Z,10.30
2023-03-22T03:30:03.943Z,10.30
2023-03-22T03:31:03.910Z,10.28
2023-03-22T03:32:03.902Z,10.25
2023-03-22T03:33:03.889Z,10.22
2023-03-22T03:34:03.866Z,10.20
2023-03-22T03:35:03.943Z,10.20
2023-03-22T03:36:03.863Z,10.19
2023-03-22T03:37:03.916Z,10.19
2023-03-22T03:38:03.804Z,10.17
2023-03-22T03:39:03.872Z,10.16
2023-03-22T03:40:03.852Z,10.13
2023-03-22T03:41:03.766Z,10.15
2023-03-22T03:42:03.802Z,10.13
2023-03-22T03:43:03.827Z,10.13
2023-03-22T03:44:03.757Z,10.10
2023-03-22T03:45:03.755Z,10.12
2023-03-22T03:46:03.846Z,10.10
2023-03-22T03:47:03.797Z,10.09
2023-03-22T03:48:03.874Z,10.09
2023-03-22T03:49:03.713Z,10.10
2023-03-22T03:50:03.711Z,10.10
2023-03-22T03:51:03.827Z,10.12
2023-03-22T03:52:03.687Z,10.12
2023-03-22T03:53:03.681Z,10.13
2023-03-22T03:54:03.660Z,10.12
2023-03-22T03:55:03.672Z,10.10
2023-03-22T03:56:03.642Z,10.13
2023-03-22T03:57:04.221Z,10.13
2023-03-22T03:58:04.518Z,10.13
2023-03-22T03:59:03.619Z,10.15
2023-03-22T04:00:03.702Z,10.12
2023-03-22T04:01:03.627Z,10.10
2023-03-22T04:02:03.679Z,10.12
2023-03-22T04:03:03.587Z,10.10
2023-03-22T04:04:03.590Z,10.12
2023-03-22T04:05:03.592Z,10.12
2023-03-22T04:06:03.602Z,10.10
2023-03-22T04:07:03.830Z,10.09
2023-03-22T04:08:03.520Z,10.07
2023-03-22T04:09:03.589Z,10.05
2023-03-22T04:10:03.565Z,10.02
2023-03-22T04:11:03.494Z,9.99
2023-03-22T04:12:03.491Z,9.98
2023-03-22T04:13:03.523Z,9.97
2023-03-22T04:14:03.621Z,9.94
2023-03-22T04:15:03.529Z,9.89
2023-03-22T04:16:03.453Z,9.89
2023-03-22T04:17:03.471Z,9.87
2023-03-22T04:18:03.650Z,9.87
2023-03-22T04:19:03.510Z,9.87
2023-03-22T04:20:05.774Z,9.89
2023-03-22T04:21:03.577Z,9.89
2023-03-22T04:22:03.441Z,9.86
2023-03-22T04:23:03.626Z,9.87
2023-03-22T04:24:03.378Z,9.84
2023-03-22T04:25:03.619Z,9.86
2023-03-22T04:26:03.471Z,9.83
2023-03-22T04:27:03.498Z,9.82
2023-03-22T04:28:03.513Z,9.80
2023-03-22T04:29:03.468Z,9.79
2023-03-22T04:30:03.376Z,9.79
2023-03-22T04:31:03.317Z,9.77
2023-03-22T04:32:03.328Z,9.79
2023-03-22T04:33:03.349Z,9.79
2023-03-22T04:34:03.397Z,9.77
2023-03-22T04:35:03.416Z,9.77
2023-03-22T04:36:04.609Z,9.77
2023-03-22T04:37:03.328Z,9.76
2023-03-22T04:38:03.385Z,9.74
2023-03-22T04:39:03.300Z,9.72
2023-03-22T04:40:03.323Z,9.68
2023-03-22T04:41:03.250Z,9.68
2023-03-22T04:42:03.315Z,9.65
2023-03-22T04:43:03.328Z,9.65
2023-03-22T04:44:03.304Z,9.64
2023-03-22T04:45:03.346Z,9.62
2023-03-22T04:46:03.367Z,9.61
2023-03-22T04:47:03.189Z,9.61
2023-03-22T04:48:03.193Z,9.61
2023-03-22T04:49:03.217Z,9.61
2023-03-22T04:50:03.241Z,9.61
2023-03-22T04:51:03.168Z,9.64
2023-03-22T04:52:03.200Z,9.66
2023-03-22T04:53:03.206Z,9.66
2023-03-22T04:54:03.312Z,9.66
2023-03-22T04:55:03.136Z,9.66
2023-03-22T04:56:03.311Z,9.65
2023-03-22T04:57:03.201Z,9.68
2023-03-22T04:58:03.145Z,9.66
2023-03-22T04:59:02.970Z,9.66
2023-03-22T05:00:03.287Z,9.64
2023-03-22T05:01:03.097Z,9.65
2023-03-22T05:02:03.095Z,9.64
2023-03-22T05:03:03.148Z,9.62
2023-03-22T05:04:03.090Z,9.62
2023-03-22T05:05:03.021Z,9.64
2023-03-22T05:06:02.950Z,9.64
2023-03-22T05:07:03.139Z,9.62
2023-03-22T05:08:02.854Z,9.65
2023-03-22T05:09:03.036Z,9.66
2023-03-22T05:10:03.053Z,9.66
2023-03-22T05:11:03.090Z,9.66
2023-03-22T05:12:03.072Z,9.65
2023-03-22T05:13:02.917Z,9.64
2023-03-22T05:14:03.386Z,9.64
2023-03-22T05:15:02.976Z,9.65
2023-03-22T05:16:02.891Z,9.65
2023-03-22T05:17:02.887Z,9.66
2023-03-22T05:18:03.035Z,9.72
2023-03-22T05:19:03.138Z,9.74
2023-03-22T05:20:02.766Z,9.74
2023-03-22T05:21:03.091Z,9.77
2023-03-22T05:22:03.003Z,9.76
2023-03-22T05:23:03.080Z,9.79
2023-03-22T05:24:03.254Z,9.79
2023-03-22T05:25:02.858Z,9.80
2023-03-22T05:26:03.086Z,9.82
2023-03-22T05:27:02.957Z,9.83
2023-03-22T05:28:02.893Z,9.86
2023-03-22T05:29:02.835Z,9.83
2023-03-22T05:30:02.599Z,9.86
2023-03-22T05:31:02.669Z,9.89
2023-03-22T05:32:02.682Z,9.92
2023-03-22T05:33:02.811Z,9.92
2023-03-22T05:34:02.719Z,9.97
2023-03-22T05:35:02.878Z,9.99
2023-03-22T05:36:02.598Z,10.05
2023-03-22T05:37:02.664Z,10.09
2023-03-22T05:38:02.815Z,10.13
2023-03-22T05:39:02.834Z,10.15
2023-03-22T05:40:02.999Z,10.20
2023-03-22T05:41:02.693Z,10.26
2023-03-22T05:42:03.390Z,10.30
2023-03-22T05:43:02.838Z,10.34
2023-03-22T05:44:02.858Z,10.40
2023-03-22T05:45:02.731Z,10.40
2023-03-22T05:46:02.504Z,10.41
2023-03-22T05:47:02.739Z,10.42
2023-03-22T05:48:02.752Z,10.44
2023-03-22T05:49:02.721Z,10.44
2023-03-22T05:50:02.884Z,10.48
2023-03-22T05:51:03.000Z,10.49
2023-03-22T05:52:02.705Z,10.53
2023-03-22T05:53:02.377Z,10.53
2023-03-22T05:54:02.314Z,10.54
2023-03-22T05:55:02.326Z,10.53
2023-03-22T05:56:02.283Z,10.53
2023-03-22T05:57:02.285Z,10.53
2023-03-22T05:58:02.312Z,10.51
2023-03-22T05:59:02.295Z,10.51
2023-03-22T06:00:02.291Z,10.53
2023-03-22T06:01:02.275Z,10.56
2023-03-22T06:02:02.319Z,10.57
2023-03-22T06:03:02.246Z,10.59
2023-03-22T06:04:02.189Z,10.60
2023-03-22T06:05:02.228Z,10.61
2023-03-22T06:06:02.187Z,10.67
2023-03-22T06:07:02.200Z,10.63
2023-03-22T06:08:02.180Z,10.67
2023-03-22T06:09:15.868Z,10.67
2023-03-22T06:10:02.207Z,10.67
2023-03-22T06:11:02.108Z,10.68
2023-03-22T06:12:02.129Z,10.68
2023-03-22T06:13:02.163Z,10.68
2023-03-22T06:14:02.098Z,10.74
2023-03-22T06:15:02.109Z,10.75
2023-03-22T06:16:02.114Z,10.79
2023-03-22T06:17:02.086Z,10.87
2023-03-22T06:18:02.067Z,10.90
2023-03-22T06:19:02.054Z,10.93
2023-03-22T06:20:02.055Z,10.94
2023-03-22T06:21:02.074Z,10.93
2023-03-22T06:22:02.046Z,10.97
2023-03-22T06:23:02.086Z,10.97
2023-03-22T06:24:01.973Z,10.97
2023-03-22T06:25:02.032Z,10.99
2023-03-22T06:26:01.968Z,11.00
2023-03-22T06:27:01.952Z,11.02
2023-03-22T06:28:02.025Z,11.05
2023-03-22T06:29:01.976Z,11.05
2023-03-22T06:30:01.934Z,11.07
2023-03-22T06:31:01.969Z,11.11
2023-03-22T06:32:01.885Z,11.12
2023-03-22T06:33:01.970Z,11.17
2023-03-22T06:34:01.886Z,11.14
2023-03-22T06:35:01.897Z,11.17
2023-03-22T06:36:01.856Z,11.18
2023-03-22T06:37:01.886Z,11.18
2023-03-22T06:38:01.847Z,11.23
2023-03-22T06:39:01.869Z,11.22
2023-03-22T06:40:01.805Z,11.22
2023-03-22T06:41:01.817Z,11.23
2023-03-22T06:42:01.810Z,11.22
2023-03-22T06:43:05.163Z,11.22
2023-03-22T06:44:01.792Z,11.23
2023-03-22T06:45:01.775Z,11.26
2023-03-22T06:46:01.800Z,11.27
2023-03-22T06:47:01.851Z,11.29
2023-03-22T06:48:01.887Z,11.27
2023-03-22T06:49:01.761Z,11.29
2023-03-22T06:50:01.718Z,11.33
2023-03-22T06:51:01.707Z,11.32
2023-03-22T06:52:01.711Z,11.30
2023-03-22T06:53:01.678Z,11.30
2023-03-22T06:54:01.662Z,11.32
2023-03-22T06:55:01.678Z,11.32
2023-03-22T06:56:01.629Z,11.32
2023-03-22T06:57:01.641Z,11.32
2023-03-22T06:58:01.621Z,11.30
2023-03-22T06:59:01.640Z,11.32
2023-03-22T07:00:01.624Z,11.33
2023-03-22T07:01:01.652Z,11.35
2023-03-22T07:02:01.566Z,11.36
2023-03-22T07:03:01.573Z,11.36
2023-03-22T07:04:01.617Z,11.41
2023-03-22T07:05:01.603Z,11.44
2023-03-22T07:06:01.550Z,11.45
2023-03-22T07:07:01.573Z,11.47
2023-03-22T07:08:01.550Z,11.45
2023-03-22T07:09:01.525Z,11.48
2023-03-22T07:10:01.500Z,11.52
2023-03-22T07:11:01.548Z,11.54
2023-03-22T07:12:01.482Z,11.57
2023-03-22T07:13:01.478Z,11.62
2023-03-22T07:14:01.461Z,11.62
2023-03-22T07:15:01.488Z,11.65
2023-03-22T07:16:01.478Z,11.65
2023-03-22T07:17:01.473Z,11.66
2023-03-22T07:18:01.428Z,11.66
2023-03-22T07:19:01.418Z,11.69
2023-03-22T07:20:01.447Z,11.69
2023-03-22T07:21:01.382Z,11.66
2023-03-22T07:22:01.386Z,11.69
2023-03-22T07:23:01.357Z,11.72
2023-03-22T07:24:01.464Z,11.72
2023-03-22T07:25:01.956Z,11.75
2023-03-22T07:26:01.369Z,11.75
2023-03-22T07:27:01.299Z,11.78
2023-03-22T07:28:01.361Z,11.80
2023-03-22T07:29:01.311Z,11.83
2023-03-22T07:30:01.288Z,11.84
2023-03-22T07:31:01.331Z,11.83
2023-03-22T07:32:01.425Z,11.88
2023-03-22T07:33:01.252Z,11.91
2023-03-22T07:34:01.263Z,11.97
2023-03-22T07:35:01.246Z,12.00
2023-03-22T07:36:01.290Z,12.02
2023-03-22T07:37:01.212Z,12.06
2023-03-22T07:38:01.248Z,12.10
2023-03-22T07:39:01.192Z,12.18
2023-03-22T07:40:01.193Z,12.22
2023-03-22T07:41:01.177Z,12.28
2023-03-22T07:42:01.163Z,12.32
2023-03-22T07:43:01.161Z,12.36
2023-03-22T07:44:15.274Z,12.40
2023-03-22T07:45:01.167Z,12.45
2023-03-22T07:46:01.145Z,12.47
2023-03-22T07:47:01.090Z,12.50
2023-03-22T07:48:01.155Z,12.57
2023-03-22T07:49:01.095Z,12.57
2023-03-22T07:50:01.102Z,12.54
2023-03-22T07:51:01.101Z,12.53
2023-03-22T07:52:01.083Z,12.50
2023-03-22T07:53:01.042Z,12.50
2023-03-22T07:54:01.050Z,12.49
2023-03-22T07:55:01.036Z,12.46
2023-03-22T07:56:01.052Z,12.46
2023-03-22T07:57:01.026Z,12.47
2023-03-22T07:58:01.080Z,12.46
2023-03-22T07:59:01.050Z,12.43
2023-03-22T08:00:01.042Z,12.40
2023-03-22T08:01:00.951Z,12.39
2023-03-22T08:02:01.011Z,12.39
2023-03-22T08:03:01.012Z,12.40
2023-03-22T08:04:00.949Z,12.40
2023-03-22T08:05:01.082Z,12.43
2023-03-22T08:06:00.907Z,12.45
2023-03-22T08:07:00.886Z,12.43
2023-03-22T08:08:01.006Z,12.45
2023-03-22T08:09:00.864Z,12.46
2023-03-22T08:10:00.942Z,12.50
2023-03-22T08:11:00.859Z,12.53
2023-03-22T08:12:00.882Z,12.54
2023-03-22T08:13:00.855Z,12.53
2023-03-22T08:14:00.882Z,12.54
2023-03-22T08:15:00.809Z,12.57
2023-03-22T08:16:00.895Z,12.55
2023-03-22T08:17:00.806Z,12.58
2023-03-22T08:18:00.823Z,12.62
2023-03-22T08:19:00.818Z,12.64
2023-03-22T08:20:00.783Z,12.68
2023-03-22T08:21:00.782Z,12.73
2023-03-22T08:22:00.759Z,12.73
2023-03-22T08:23:00.715Z,12.78
2023-03-22T08:24:00.822Z,12.76
2023-03-22T08:25:00.703Z,12.79
2023-03-22T08:26:00.868Z,12.82
2023-03-22T08:27:00.703Z,12.80
2023-03-22T08:28:00.707Z,12.80
2023-03-22T08:29:00.680Z,12.82
2023-03-22T08:30:01.110Z,12.82
2023-03-22T08:31:00.671Z,12.85
2023-03-22T08:32:00.675Z,12.86
2023-03-22T08:33:01.477Z,12.90
2023-03-22T08:34:00.657Z,12.90
2023-03-22T08:35:00.641Z,12.90
2023-03-22T08:36:00.623Z,12.91
2023-03-22T08:37:00.605Z,12.95
2023-03-22T08:38:00.578Z,13.01
2023-03-22T08:39:00.581Z,13.08
2023-03-22T08:40:00.637Z,13.09
2023-03-22T08:41:00.569Z,13.11
2023-03-22T08:42:00.579Z,13.12
2023-03-22T08:43:00.501Z,13.11
2023-03-22T08:44:00.544Z,13.11
2023-03-22T08:45:00.585Z,13.09
2023-03-22T08:46:00.519Z,13.04
2023-03-22T08:47:02.194Z,12.94
2023-03-22T08:48:00.526Z,12.91
2023-03-22T08:49:00.479Z,12.93
2023-03-22T08:50:00.434Z,12.95
2023-03-22T08:51:00.434Z,12.98
2023-03-22T08:52:00.489Z,13.01
2023-03-22T08:53:01.177Z,13.03
2023-03-22T08:54:00.385Z,13.03
2023-03-22T08:55:00.485Z,13.03
2023-03-22T08:56:00.397Z,13.00
2023-03-22T08:57:00.392Z,13.01
2023-03-22T08:58:00.407Z,12.98
2023-03-22T08:59:00.363Z,12.95
2023-03-22T09:00:00.374Z,12.91
2023-03-22T09:01:00.435Z,12.87
2023-03-22T09:02:00.546Z,12.85
2023-03-22T09:03:00.336Z,12.82
2023-03-22T09:04:00.519Z,12.82
2023-03-22T09:05:00.266Z,12.85
2023-03-22T09:06:00.270Z,12.91
2023-03-22T09:07:00.253Z,12.95
2023-03-22T09:08:06.110Z,13.01
2023-03-22T09:09:00.260Z,13.04
2023-03-22T09:10:00.220Z,13.09
2023-03-22T09:11:00.236Z,13.12
2023-03-22T09:12:00.243Z,13.13
2023-03-22T09:13:00.184Z,13.11
2023-03-22T09:14:00.243Z,13.09
2023-03-22T09:15:00.195Z,13.08
2023-03-22T09:16:00.301Z,13.08
2023-03-22T09:17:00.175Z,13.01
2023-03-22T09:18:00.146Z,12.98
2023-03-22T09:19:00.158Z,13.03
2023-03-22T09:20:11.617Z,13.03
2023-03-22T09:21:00.115Z,13.03
2023-03-22T09:22:00.128Z,13.01
2023-03-22T09:23:00.155Z,13.01
2023-03-22T09:24:00.129Z,13.03
2023-03-22T09:25:00.062Z,13.03
2023-03-22T09:26:00.092Z,13.01
2023-03-22T09:27:00.102Z,13.00
2023-03-22T09:28:00.042Z,12.98
2023-03-22T09:29:00.054Z,12.95
2023-03-22T09:30:00.072Z,12.94
2023-03-22T09:31:00.028Z,12.93
2023-03-22T09:31:59.999Z,12.86
2023-03-22T09:32:59.985Z,12.86
2023-03-22T09:33:59.995Z,12.83
2023-03-22T09:34:59.975Z,12.79
2023-03-22T09:36:00.082Z,12.79
2023-03-22T09:36:59.955Z,12.80
2023-03-22T09:37:59.936Z,12.82
2023-03-22T09:38:59.923Z,12.85
2023-03-22T09:39:59.938Z,12.87
2023-03-22T09:40:59.907Z,12.93
2023-03-22T09:41:59.883Z,12.98
2023-03-22T09:42:59.892Z,13.05
2023-03-22T09:43:59.903Z,13.16
2023-03-22T09:44:59.943Z,13.28
2023-03-22T09:45:59.922Z,13.41
2023-03-22T09:46:59.836Z,13.49
2023-03-22T09:47:59.903Z,13.57
2023-03-22T09:48:59.848Z,13.60
2023-03-22T09:49:59.788Z,13.62
2023-03-22T09:50:59.780Z,13.60
2023-03-22T09:51:59.853Z,13.65
2023-03-22T09:52:59.784Z,13.70
2023-03-22T09:53:59.814Z,13.71
2023-03-22T09:54:59.731Z,13.75
2023-03-22T09:55:59.747Z,13.78
2023-03-22T09:56:59.733Z,13.81
2023-03-22T09:57:59.763Z,13.81
2023-03-22T09:58:59.729Z,13.83
2023-03-22T09:59:59.694Z,13.86
2023-03-22T10:00:59.789Z,13.83
2023-03-22T10:01:59.970Z,13.81
2023-03-22T10:02:59.653Z,13.81
2023-03-22T10:03:59.763Z,13.81
2023-03-22T10:04:59.702Z,13.77
2023-03-22T10:05:59.658Z,13.78
2023-03-22T10:06:59.672Z,13.77
2023-03-22T10:07:59.596Z,13.78
2023-03-22T10:08:59.614Z,13.72
2023-03-22T10:09:59.586Z,13.70
2023-03-22T10:10:59.597Z,13.62
2023-03-22T10:11:59.561Z,13.57
2023-03-22T10:12:59.560Z,13.56
2023-03-22T10:13:59.562Z,13.56
2023-03-22T10:14:59.521Z,13.56
2023-03-22T10:15:59.581Z,13.53
2023-03-22T10:16:59.495Z,13.52
2023-03-22T10:17:59.515Z,13.49
2023-03-22T10:18:59.473Z,13.46
2023-03-22T10:19:59.538Z,13.42
2023-03-22T10:20:59.504Z,13.42
2023-03-22T10:21:59.463Z,13.41
2023-03-22T10:22:59.474Z,13.46
2023-03-22T10:23:59.514Z,13.49
2023-03-22T10:24:59.418Z,13.56
2023-03-22T10:25:59.479Z,13.65
2023-03-22T10:26:59.393Z,13.75
2023-03-22T10:27:59.400Z,13.83
2023-03-22T10:28:59.400Z,13.97
2023-03-22T10:29:59.418Z,14.08
2023-03-22T10:30:59.429Z,14.20
2023-03-22T10:31:59.378Z,14.36
2023-03-22T10:32:59.370Z,14.43
2023-03-22T10:33:59.356Z,14.50
2023-03-22T10:34:59.352Z,14.58
2023-03-22T10:35:59.407Z,14.60
2023-03-22T10:36:59.284Z,14.65
2023-03-22T10:37:59.290Z,14.65
2023-03-22T10:38:59.336Z,14.66
2023-03-22T10:39:59.269Z,14.60
2023-03-22T10:40:59.260Z,14.60
2023-03-22T10:41:59.280Z,14.59
2023-03-22T10:42:59.249Z,14.53
2023-03-22T10:43:59.216Z,14.50
2023-03-22T10:44:59.207Z,14.47
2023-03-22T10:45:59.235Z,14.48
2023-03-22T10:46:59.338Z,14.45
2023-03-22T10:47:59.191Z,14.41
2023-03-22T10:49:02.076Z,14.36
2023-03-22T10:49:59.172Z,14.30
2023-03-22T10:50:59.139Z,14.32
2023-03-22T10:51:59.150Z,14.40
2023-03-22T10:52:59.109Z,14.47
2023-03-22T10:53:59.141Z,14.55
2023-03-22T10:55:02.442Z,14.62
2023-03-22T10:55:59.089Z,14.65
2023-03-22T10:56:59.117Z,14.63
2023-03-22T10:57:59.092Z,14.62
2023-03-22T10:58:59.049Z,14.66
2023-03-22T10:59:59.052Z,14.70
2023-03-22T11:00:59.121Z,14.79
2023-03-22T11:01:59.213Z,14.81
2023-03-22T11:02:59.153Z,14.81
2023-03-22T11:03:59.064Z,14.82
2023-03-22T11:04:58.994Z,14.84
2023-03-22T11:05:59.024Z,14.81
2023-03-22T11:06:58.994Z,14.69
2023-03-22T11:07:59.007Z,14.59
2023-03-22T11:08:58.964Z,14.54
2023-03-22T11:09:58.964Z,14.50
2023-03-22T11:10:58.975Z,14.44
2023-03-22T11:11:58.928Z,14.40
2023-03-22T11:12:58.926Z,14.41
2023-03-22T11:13:58.899Z,14.36
2023-03-22T11:14:58.911Z,14.33
2023-03-22T11:15:58.882Z,14.32
2023-03-22T11:16:58.898Z,14.30
2023-03-22T11:17:58.903Z,14.32
2023-03-22T11:18:58.833Z,14.32
2023-03-22T11:19:58.927Z,14.32
2023-03-22T11:20:58.856Z,14.26
2023-03-22T11:21:58.839Z,14.20
2023-03-22T11:22:58.805Z,14.17
2023-03-22T11:23:58.840Z,14.12
2023-03-22T11:24:58.802Z,14.08
2023-03-22T11:25:58.813Z,14.03
2023-03-22T11:26:58.783Z,14.03
2023-03-22T11:27:58.769Z,14.03
2023-03-22T11:28:58.772Z,14.00
2023-03-22T11:29:58.742Z,13.97
2023-03-22T11:30:58.745Z,13.97
2023-03-22T11:31:58.837Z,13.95
2023-03-22T11:32:58.781Z,13.93
2023-03-22T11:33:58.724Z,13.92
2023-03-22T11:34:58.723Z,13.92
2023-03-22T11:35:58.780Z,13.95
2023-03-22T11:36:58.664Z,13.95
2023-03-22T11:37:58.644Z,13.97
2023-03-22T11:38:58.668Z,13.97
2023-03-22T11:39:58.626Z,13.96
2023-03-22T11:40:58.632Z,13.95
2023-03-22T11:41:58.616Z,13.95
2023-03-22T11:42:58.599Z,13.92
2023-03-22T11:43:58.631Z,13.92
2023-03-22T11:44:58.651Z,13.90
2023-03-22T11:45:58.595Z,13.95
2023-03-22T11:46:58.539Z,13.93
2023-03-22T11:47:58.644Z,13.87
2023-03-22T11:49:00.957Z,13.87
2023-03-22T11:49:58.497Z,13.77
2023-03-22T11:50:58.529Z,13.71
2023-03-22T11:51:58.492Z,13.71
2023-03-22T11:52:58.511Z,13.67
2023-03-22T11:53:58.472Z,13.59
2023-03-22T11:54:58.502Z,13.54
2023-03-22T11:55:58.443Z,13.52
2023-03-22T11:56:58.477Z,13.47
2023-03-22T11:57:58.494Z,13.39
2023-03-22T11:59:01.133Z,13.31
2023-03-22T11:59:58.417Z,13.25
2023-03-22T12:00:58.444Z,13.20
2023-03-22T12:01:58.411Z,13.16
2023-03-22T12:02:58.495Z,13.11
2023-03-22T12:03:58.453Z,13.09
2023-03-22T12:04:58.383Z,13.05
2023-03-22T12:05:58.358Z,13.01
2023-03-22T12:06:58.354Z,12.95
2023-03-22T12:07:58.320Z,12.94
2023-03-22T12:08:58.320Z,12.94
2023-03-22T12:09:59.158Z,12.91
2023-03-22T12:10:58.310Z,12.87
2023-03-22T12:11:58.289Z,12.87
2023-03-22T12:12:58.315Z,12.90
2023-03-22T12:13:58.292Z,12.90
2023-03-22T12:14:58.247Z,12.90
2023-03-22T12:15:58.245Z,12.87
2023-03-22T12:16:58.221Z,12.86
2023-03-22T12:17:58.268Z,12.83
2023-03-22T12:18:58.271Z,12.83
2023-03-22T12:19:58.202Z,12.80
2023-03-22T12:20:58.202Z,12.79
2023-03-22T12:21:58.174Z,12.79
2023-03-22T12:22:58.165Z,12.79
2023-03-22T12:23:58.156Z,12.79
2023-03-22T12:24:58.162Z,12.79
2023-03-22T12:25:58.129Z,12.78
2023-03-22T12:26:58.153Z,12.75
2023-03-22T12:27:58.109Z,12.78
2023-03-22T12:28:58.171Z,12.78
2023-03-22T12:29:58.080Z,12.80
2023-03-22T12:30:58.129Z,12.85
2023-03-22T12:31:58.155Z,12.87
2023-03-22T12:32:58.190Z,12.91
2023-03-22T12:33:58.088Z,12.97
2023-03-22T12:35:16.129Z,13.03
2023-03-22T12:35:58.039Z,13.03
2023-03-22T12:36:58.018Z,13.04
2023-03-22T12:37:57.992Z,13.04
2023-03-22T12:38:57.985Z,13.08
2023-03-22T12:39:57.988Z,13.11
2023-03-22T12:40:57.981Z,13.11
2023-03-22T12:41:57.974Z,13.09
2023-03-22T12:42:59.769Z,13.11
2023-03-22T12:43:57.954Z,13.08
2023-03-22T12:45:04.757Z,13.08
2023-03-22T12:45:57.942Z,13.11
2023-03-22T12:46:57.950Z,13.12
2023-03-22T12:47:57.996Z,13.12
2023-03-22T12:48:57.945Z,13.12
2023-03-22T12:49:57.883Z,13.13
2023-03-22T12:50:57.905Z,13.13
2023-03-22T12:51:57.844Z,13.12
2023-03-22T12:52:57.866Z,13.12
2023-03-22T12:53:57.855Z,13.11
2023-03-22T12:54:57.819Z,13.11